createdAt,value
2023-03-31T00:00:42.654Z,14.30
2023-03-31T00:03:26.563Z,13.40
2023-03-31T00:06:02.566Z,13.30
2023-03-31T00:08:40.675Z,14.40
2023-03-31T00:11:15.970Z,13.70
2023-03-31T00:13:52.043Z,13.50
2023-03-31T00:16:27.844Z,13.20
2023-03-31T00:19:04.827Z,12.10
2023-03-31T00:21:39.617Z,11.80
2023-03-31T00:24:23.524Z,12.00
2023-03-31T00:26:57.604Z,11.30
2023-03-31T00:29:34.948Z,11.00
2023-03-31T00:32:11.871Z,12.00
2023-03-31T00:34:48.283Z,11.30
2023-03-31T00:37:23.169Z,11.30
2023-03-31T00:39:58.761Z,12.70
2023-03-31T00:42:41.690Z,11.10
2023-03-31T00:45:33.720Z,11.30
2023-03-31T00:48:17.484Z,12.50
2023-03-31T00:50:59.451Z,11.60
2023-03-31T00:53:38.793Z,11.30
2023-03-31T00:56:18.579Z,10.90
2023-03-31T00:59:02.127Z,11.60
2023-03-31T01:01:40.359Z,11.80
2023-03-31T01:04:17.721Z,11.60
2023-03-31T01:07:01.633Z,11.80
2023-03-31T01:09:36.573Z,12.50
2023-03-31T01:12:13.975Z,13.30
2023-03-31T01:14:48.850Z,14.20
2023-03-31T01:17:29.369Z,13.90
2023-03-31T01:20:17.151Z,14.60
2023-03-31T01:23:24.085Z,15.20
2023-03-31T01:26:28.192Z,16.70
2023-03-31T01:29:08.766Z,17.40
2023-03-31T01:32:18.646Z,17.60
2023-03-31T01:35:21.336Z,17.40
2023-03-31T01:38:53.088Z,18.20
2023-03-31T01:44:58.182Z,16.80
2023-03-31T01:47:41.031Z,19.40
2023-03-31T01:50:25.510Z,21.00
2023-03-31T01:53:08.446Z,20.30
2023-03-31T01:55:50.820Z,20.50
2023-03-31T01:58:32.580Z,23.40
2023-03-31T02:01:13.717Z,19.80
2023-03-31T02:03:56.984Z,19.80
2023-03-31T02:06:36.407Z,22.50
2023-03-31T02:09:18.472Z,21.80
2023-03-31T02:11:56.579Z,21.40
2023-03-31T02:14:37.985Z,22.50
2023-03-31T02:17:22.003Z,19.90
2023-03-31T02:20:05.966Z,20.40
2023-03-31T02:22:44.272Z,19.60
2023-03-31T02:25:24.697Z,20.40
2023-03-31T02:28:02.577Z,18.50
2023-03-31T02:30:45.739Z,20.10
2023-03-31T02:33:22.119Z,21.20
2023-03-31T02:35:58.843Z,19.20
2023-03-31T02:38:40.811Z,18.20
2023-03-31T02:41:15.702Z,18.80
2023-03-31T02:43:52.072Z,17.20
2023-03-31T02:46:32.496Z,18.90
2023-03-31T02:49:12.252Z,16.40
2023-03-31T02:52:11.749Z,15.40
2023-03-31T02:55:23.283Z,17.80
2023-03-31T02:58:24.152Z,16.00
2023-03-31T03:01:18.220Z,15.10
2023-03-31T03:04:11.570Z,15.10
2023-03-31T03:07:01.317Z,13.80
2023-03-31T03:09:47.243Z,13.90
2023-03-31T03:12:28.376Z,17.50
2023-03-31T03:15:10.664Z,12.70
2023-03-31T03:17:48.869Z,15.90
2023-03-31T03:20:25.411Z,14.00
2023-03-31T03:23:01.248Z,13.50
2023-03-31T03:25:37.318Z,12.00
2023-03-31T03:28:14.068Z,13.50
2023-03-31T03:30:50.112Z,12.70
2023-03-31T03:33:25.218Z,12.20
2023-03-31T03:35:59.783Z,13.90
2023-03-31T03:38:35.536Z,12.70
2023-03-31T03:41:12.994Z,12.20
2023-03-31T03:43:47.939Z,10.80
2023-03-31T03:46:25.240Z,13.20
2023-03-31T03:49:00.434Z,11.90
2023-03-31T03:51:37.172Z,13.70
2023-03-31T03:54:12.319Z,13.90
2023-03-31T03:56:46.748Z,12.60
2023-03-31T03:59:23.767Z,11.60
2023-03-31T04:01:59.698Z,13.50
2023-03-31T04:04:33.813Z,12.50
2023-03-31T04:07:08.752Z,12.70
2023-03-31T04:09:42.981Z,11.40
2023-03-31T04:12:42.127Z,16.10
2023-03-31T04:15:17.190Z,15.90
2023-03-31T04:17:55.953Z,12.20
2023-03-31T04:20:32.638Z,11.10
2023-03-31T04:23:10.468Z,12.30
2023-03-31T04:25:47.614Z,13.10
2023-03-31T04:28:24.619Z,11.90
2023-03-31T04:31:02.961Z,14.20
2023-03-31T04:33:46.467Z,12.70
2023-03-31T04:36:22.083Z,12.70
2023-03-31T04:38:59.755Z,13.40
2023-03-31T04:41:36.384Z,12.50
2023-03-31T04:44:10.519Z,14.80
2023-03-31T04:46:45.729Z,14.10
2023-03-31T04:49:20.276Z,12.50
2023-03-31T04:51:56.345Z,12.40
2023-03-31T04:54:32.820Z,15.10
2023-03-31T04:57:07.718Z,16.60
2023-03-31T04:59:43.125Z,12.30
2023-03-31T05:02:25.751Z,13.70
2023-03-31T05:05:02.958Z,16.30
2023-03-31T05:07:38.792Z,14.40
2023-03-31T05:10:16.332Z,16.10
2023-03-31T05:12:51.524Z,13.80
2023-03-31T05:15:26.620Z,13.90
2023-03-31T05:18:02.970Z,14.10
2023-03-31T05:20:40.681Z,16.80
2023-03-31T05:23:16.508Z,13.60
2023-03-31T05:25:53.819Z,15.10
2023-03-31T05:28:27.675Z,17.00
2023-03-31T05:31:04.293Z,16.40
2023-03-31T05:33:42.477Z,15.50
2023-03-31T05:36:19.716Z,16.00
2023-03-31T05:38:57.854Z,20.00
2023-03-31T05:41:31.570Z,18.60
2023-03-31T05:44:06.071Z,16.80
2023-03-31T05:46:41.117Z,16.90
2023-03-31T05:49:17.611Z,18.90
2023-03-31T05:51:52.369Z,18.10
2023-03-31T05:54:28.031Z,18.80
2023-03-31T05:57:03.412Z,18.00
2023-03-31T05:59:41.079Z,17.60
2023-03-31T06:02:18.458Z,17.80
2023-03-31T06:04:56.878Z,17.70
2023-03-31T06:07:33.286Z,19.00
2023-03-31T06:10:11.667Z,18.70
2023-03-31T06:12:46.674Z,18.30
2023-03-31T06:15:21.937Z,18.00
2023-03-31T06:17:58.392Z,20.20
2023-03-31T06:20:33.900Z,18.40
2023-03-31T06:23:10.215Z,18.40
2023-03-31T06:25:50.819Z,19.20
2023-03-31T06:28:25.709Z,16.90
2023-03-31T06:31:07.434Z,19.20
2023-03-31T06:33:44.887Z,17.70
2023-03-31T06:36:21.598Z,18.40
2023-03-31T06:38:56.882Z,16.50
2023-03-31T06:41:32.590Z,22.30
2023-03-31T06:44:09.277Z,20.00
2023-03-31T06:46:45.880Z,28.00
2023-03-31T06:49:23.663Z,28.00
2023-03-31T06:51:59.818Z,26.60
2023-03-31T06:54:36.167Z,18.40
2023-03-31T06:57:10.977Z,26.00
2023-03-31T06:59:46.217Z,19.40
2023-03-31T07:02:23.534Z,20.20
2023-03-31T07:04:58.992Z,19.90
2023-03-31T07:07:38.381Z,19.10
2023-03-31T07:10:17.191Z,19.50
2023-03-31T07:12:54.672Z,23.10
2023-03-31T07:15:31.634Z,16.50
2023-03-31T07:18:07.920Z,15.40
2023-03-31T07:20:43.942Z,15.90
2023-03-31T07:23:18.424Z,16.40
2023-03-31T07:25:53.888Z,16.60
2023-03-31T07:28:31.400Z,14.30
2023-03-31T07:31:19.185Z,13.80
2023-03-31T07:33:54.484Z,13.00
2023-03-31T07:36:31.091Z,16.20
2023-03-31T07:39:06.763Z,15.70
2023-03-31T07:41:43.074Z,13.30
2023-03-31T07:44:22.437Z,13.10
2023-03-31T07:46:59.326Z,12.80
2023-03-31T07:49:34.804Z,13.40
2023-03-31T07:52:10.713Z,11.30
2023-03-31T07:54:46.297Z,13.00
2023-03-31T07:57:21.247Z,11.30
2023-03-31T07:59:56.605Z,12.80
2023-03-31T08:02:31.574Z,18.80
2023-03-31T08:05:08.212Z,13.20
2023-03-31T08:07:46.506Z,11.70
2023-03-31T08:10:22.597Z,12.60
2023-03-31T08:12:58.619Z,12.20
2023-03-31T08:15:36.048Z,14.20
2023-03-31T08:18:10.299Z,11.10
2023-03-31T08:20:46.169Z,13.70
2023-03-31T08:23:22.794Z,11.90
2023-03-31T08:26:08.467Z,14.40
2023-03-31T08:28:44.173Z,13.10
2023-03-31T08:31:21.997Z,10.80
2023-03-31T08:33:56.630Z,11.50
2023-03-31T08:36:32.965Z,12.30
2023-03-31T08:39:09.110Z,9.40
2023-03-31T08:42:02.885Z,10.00
2023-03-31T08:44:42.618Z,11.30
2023-03-31T08:47:21.508Z,10.20
2023-03-31T08:50:00.773Z,11.80
2023-03-31T08:52:39.786Z,12.40
2023-03-31T08:55:20.719Z,13.70
2023-03-31T08:58:02.856Z,12.30
2023-03-31T09:00:48.936Z,12.90
2023-03-31T09:03:31.838Z,10.50
2023-03-31T09:06:15.341Z,11.50
2023-03-31T09:08:54.333Z,10.90
2023-03-31T09:11:37.374Z,11.20
2023-03-31T09:14:48.380Z,12.00
2023-03-31T09:17:28.018Z,10.30
2023-03-31T09:20:10.185Z,16.30
2023-03-31T09:22:54.750Z,14.50
2023-03-31T09:25:34.909Z,14.70
2023-03-31T09:28:15.818Z,11.60
2023-03-31T09:30:52.683Z,13.70
2023-03-31T09:33:32.959Z,14.20
2023-03-31T09:36:16.318Z,14.90
2023-03-31T09:38:51.396Z,15.70
2023-03-31T09:41:27.868Z,20.70
2023-03-31T09:44:02.317Z,13.10
2023-03-31T09:46:40.300Z,12.00
2023-03-31T09:49:21.464Z,11.00
2023-03-31T09:52:04.066Z,12.50
2023-03-31T09:54:49.658Z,16.60
2023-03-31T09:57:33.789Z,13.40
2023-03-31T10:00:17.159Z,11.80
2023-03-31T10:02:53.705Z,10.30
2023-03-31T10:05:58.048Z,14.60
2023-03-31T10:08:37.093Z,12.70
2023-03-31T10:11:15.786Z,13.70
2023-03-31T10:13:54.148Z,13.50
2023-03-31T10:16:36.836Z,14.00
2023-03-31T10:19:24.129Z,15.60
2023-03-31T10:22:02.939Z,14.10
2023-03-31T10:24:43.233Z,14.10
2023-03-31T10:27:27.432Z,15.90
2023-03-31T10:30:04.954Z,15.00
2023-03-31T10:32:43.424Z,15.90
2023-03-31T10:35:30.200Z,18.10
2023-03-31T10:38:09.679Z,17.40
2023-03-31T10:40:52.251Z,21.10
2023-03-31T10:43:32.142Z,19.80
2023-03-31T10:46:09.344Z,17.60
2023-03-31T10:48:46.390Z,18.40
2023-03-31T10:51:23.445Z,18.10
2023-03-31T10:54:03.582Z,18.80
2023-03-31T10:56:48.662Z,19.50
2023-03-31T10:59:35.234Z,17.00
2023-03-31T11:02:59.219Z,17.30
2023-03-31T11:05:42.287Z,19.60
2023-03-31T11:08:33.329Z,17.10
2023-03-31T11:11:21.939Z,17.00
2023-03-31T11:14:06.551Z,17.70
2023-03-31T11:16:53.598Z,16.20
2023-03-31T11:19:41.696Z,14.80
2023-03-31T11:22:25.695Z,17.60
2023-03-31T11:25:14.008Z,14.30
2023-03-31T11:28:21.789Z,15.60
2023-03-31T11:31:08.889Z,13.50
2023-03-31T11:33:59.936Z,16.20
2023-03-31T11:36:46.488Z,15.70
2023-03-31T11:39:54.245Z,12.00
2023-03-31T11:42:37.231Z,15.30
2023-03-31T11:45:19.868Z,13.80
2023-03-31T11:48:00.964Z,13.50
2023-03-31T11:50:40.703Z,12.70
2023-03-31T11:53:25.526Z,11.30
2023-03-31T11:56:05.602Z,12.50
2023-03-31T11:58:47.463Z,14.00
2023-03-31T12:01:28.162Z,14.90
2023-03-31T12:04:09.575Z,11.60
2023-03-31T12:06:47.499Z,13.80
2023-03-31T12:09:29.809Z,15.00
2023-03-31T12:12:12.062Z,14.10
2023-03-31T12:14:53.812Z,10.60
2023-03-31T12:17:31.449Z,20.10
2023-03-31T12:20:16.382Z,25.20
2023-03-31T12:22:53.356Z,15.10
2023-03-31T12:25:31.166Z,14.00
2023-03-31T12:28:08.407Z,11.10
2023-03-31T12:30:45.234Z,16.00
2023-03-31T12:33:27.356Z,10.50
2023-03-31T12:36:16.183Z,18.10
2023-03-31T12:39:13.357Z,8.90
2023-03-31T12:42:06.393Z,14.90
2023-03-31T12:44:53.293Z,12.40
2023-03-31T12:47:48.832Z,12.50
2023-03-31T12:50:52.424Z,10.50
2023-03-31T12:53:46.348Z,14.90
2023-03-31T12:56:26.529Z,22.50
2023-03-31T12:59:35.355Z,19.10
2023-03-31T13:02:42.592Z,16.00
2023-03-31T13:05:50.068Z,14.00
2023-03-31T13:08:55.277Z,15.20
2023-03-31T13:11:50.163Z,16.00
2023-03-31T13:14:27.444Z,16.20
2023-03-31T13:17:25.440Z,15.50
2023-03-31T13:20:21.505Z,16.40
2023-03-31T13:23:04.825Z,19.80
2023-03-31T13:25:50.138Z,18.70
2023-03-31T13:28:34.627Z,17.30
2023-03-31T13:31:12.199Z,17.40
2023-03-31T13:33:57.631Z,15.80
2023-03-31T13:37:08.966Z,16.10
2023-03-31T13:40:08.665Z,13.50
2023-03-31T13:43:29.423Z,18.40
2023-03-31T13:46:58.356Z,13.20
2023-03-31T13:49:54.419Z,11.80
2023-03-31T13:52:49.361Z,13.80
2023-03-31T13:55:56.677Z,12.30
2023-03-31T13:58:49.753Z,9.50
2023-03-31T14:01:49.195Z,12.50
2023-03-31T14:04:59.266Z,12.50
2023-03-31T14:07:41.146Z,13.90
2023-03-31T14:10:32.167Z,15.70
2023-03-31T14:13:18.183Z,12.90
2023-03-31T14:15:59.592Z,12.00
2023-03-31T14:18:37.556Z,12.00
2023-03-31T14:21:24.084Z,14.00
2023-03-31T14:24:09.372Z,15.00
2023-03-31T14:27:00.560Z,18.60
2023-03-31T14:29:55.354Z,18.40
2023-03-31T14:32:45.041Z,17.30
2023-03-31T14:35:34.802Z,14.20
2023-03-31T14:38:19.033Z,14.70
2023-03-31T14:41:04.592Z,14.80
2023-03-31T14:43:50.556Z,13.90
2023-03-31T14:46:28.323Z,14.90
2023-03-31T14:49:25.818Z,15.70
2023-03-31T14:52:15.490Z,13.80
2023-03-31T14:55:08.497Z,15.50
2023-03-31T14:57:46.947Z,15.30
2023-03-31T15:00:33.390Z,14.50
2023-03-31T15:03:16.587Z,15.60
2023-03-31T15:05:52.096Z,14.30
2023-03-31T15:08:29.994Z,15.80
2023-03-31T15:14:04.447Z,10.80
2023-03-31T15:16:47.803Z,9.90
2023-03-31T15:19:26.155Z,9.50
2023-03-31T15:22:06.739Z,13.90
2023-03-31T15:24:43.453Z,9.00
2023-03-31T15:27:35.815Z,8.50
2023-03-31T15:30:21.359Z,9.30
2023-03-31T15:33:11.147Z,8.20
2023-03-31T15:35:56.378Z,6.00
2023-03-31T15:38:33.851Z,5.80
2023-03-31T15:41:17.541Z,5.40
2023-03-31T15:44:06.769Z,6.70
2023-03-31T15:47:04.185Z,6.30
2023-03-31T15:49:39.589Z,7.40
2023-03-31T15:52:26.298Z,5.70
2023-03-31T15:55:02.143Z,7.50
2023-03-31T15:57:38.410Z,7.80
2023-03-31T16:00:48.291Z,8.90
2023-03-31T16:03:29.352Z,8.10
2023-03-31T16:06:11.676Z,11.20
2023-03-31T16:08:49.267Z,9.50
2023-03-31T16:11:30.550Z,11.50
2023-03-31T16:14:14.227Z,20.10
2023-03-31T16:16:55.390Z,15.00
2023-03-31T16:19:33.757Z,16.80
2023-03-31T16:22:09.184Z,16.40
2023-03-31T16:24:45.560Z,18.60
2023-03-31T16:27:20.291Z,14.10
2023-03-31T16:30:06.984Z,13.60
2023-03-31T16:32:41.736Z,16.10
2023-03-31T16:35:16.815Z,15.90
2023-03-31T16:37:55.774Z,20.10
2023-03-31T16:40:30.381Z,26.70
2023-03-31T16:43:17.644Z,32.80
2023-03-31T16:45:54.039Z,37.00
2023-03-31T16:48:34.383Z,29.30
2023-03-31T16:51:09.897Z,26.10
2023-03-31T16:53:43.578Z,22.10
2023-03-31T16:56:20.229Z,26.60
2023-03-31T16:58:55.351Z,21.70
2023-03-31T17:01:31.445Z,19.30
2023-03-31T17:04:06.294Z,17.50
2023-03-31T17:06:41.676Z,23.50
2023-03-31T17:09:17.891Z,24.70
2023-03-31T17:11:53.659Z,25.30
2023-03-31T17:14:29.074Z,22.90
2023-03-31T17:17:04.207Z,22.20
2023-03-31T17:19:38.692Z,20.20
2023-03-31T17:22:13.698Z,19.40
2023-03-31T17:24:53.385Z,16.80
2023-03-31T17:27:30.189Z,17.90
2023-03-31T17:30:07.339Z,15.80
2023-03-31T17:32:41.506Z,16.40
2023-03-31T17:35:21.331Z,16.70
2023-03-31T17:37:56.473Z,16.40
2023-03-31T17:40:33.880Z,15.50
2023-03-31T17:43:08.409Z,18.60
2023-03-31T17:45:43.443Z,19.10
2023-03-31T17:48:19.074Z,24.30
2023-03-31T17:50:55.268Z,23.70
2023-03-31T17:53:28.748Z,17.90
2023-03-31T17:56:04.379Z,17.60
2023-03-31T17:58:40.539Z,21.30
2023-03-31T18:01:17.951Z,19.50
2023-03-31T18:03:56.913Z,19.10
2023-03-31T18:06:34.089Z,19.10
2023-03-31T18:09:09.322Z,21.50
2023-03-31T18:11:44.173Z,21.50
2023-03-31T18:14:18.619Z,21.00
2023-03-31T18:16:55.926Z,23.40
2023-03-31T18:19:30.425Z,26.10
2023-03-31T18:22:07.029Z,24.80
2023-03-31T18:24:41.831Z,25.20
2023-03-31T18:27:19.201Z,26.20
2023-03-31T18:29:56.846Z,24.40
2023-03-31T18:32:33.071Z,24.00
2023-03-31T18:35:17.333Z,31.10
2023-03-31T18:37:52.363Z,34.90
2023-03-31T18:40:26.952Z,29.60
2023-03-31T18:43:02.496Z,27.30
2023-03-31T18:45:39.188Z,23.00
2023-03-31T18:48:15.400Z,24.30
2023-03-31T18:50:52.114Z,22.00
2023-03-31T18:53:28.121Z,21.80
2023-03-31T18:56:04.488Z,19.90
2023-03-31T18:58:40.204Z,20.50
2023-03-31T19:01:14.756Z,24.60
2023-03-31T19:03:54.921Z,18.80
2023-03-31T19:06:30.746Z,17.30
2023-03-31T19:09:07.086Z,30.30
2023-03-31T19:11:46.219Z,29.50
2023-03-31T19:14:23.116Z,39.70
2023-03-31T19:16:58.197Z,35.50
2023-03-31T19:19:35.450Z,29.80
2023-03-31T19:22:09.735Z,16.50
2023-03-31T19:24:45.450Z,22.10
2023-03-31T19:27:23.194Z,20.40
2023-03-31T19:29:58.773Z,19.50
2023-03-31T19:32:34.376Z,19.50
2023-03-31T19:35:11.504Z,14.10
2023-03-31T19:37:46.265Z,15.40
2023-03-31T19:40:22.209Z,16.20
2023-03-31T19:42:58.576Z,19.30
2023-03-31T19:45:34.836Z,23.30
2023-03-31T19:48:12.002Z,23.60
2023-03-31T19:50:53.004Z,41.10
2023-03-31T19:53:28.143Z,28.70
2023-03-31T19:56:09.266Z,21.40
2023-03-31T19:58:45.434Z,21.20
2023-03-31T20:01:24.440Z,20.60
2023-03-31T20:04:00.057Z,16.40
2023-03-31T20:06:39.225Z,12.30
2023-03-31T20:09:18.345Z,13.10
2023-03-31T20:11:54.045Z,12.30
2023-03-31T20:14:30.061Z,11.40
2023-03-31T20:17:07.796Z,11.90
2023-03-31T20:19:45.118Z,12.40
2023-03-31T20:22:18.658Z,11.70
2023-03-31T20:24:53.614Z,12.90
2023-03-31T20:27:28.903Z,13.30
2023-03-31T20:30:05.697Z,16.70
2023-03-31T20:32:41.975Z,10.10
2023-03-31T20:35:17.824Z,10.00
2023-03-31T20:37:52.883Z,9.70
2023-03-31T20:40:27.189Z,10.00
2023-03-31T20:43:04.669Z,11.90
2023-03-31T20:45:40.138Z,11.30
2023-03-31T20:48:15.290Z,11.80
2023-03-31T20:50:50.128Z,13.50
2023-03-31T20:53:26.606Z,21.70
2023-03-31T20:56:02.866Z,45.70
2023-03-31T20:58:39.679Z,76.10
2023-03-31T21:01:18.282Z,67.60
2023-03-31T21:03:52.396Z,47.00
2023-03-31T21:06:28.488Z,32.50
2023-03-31T21:09:04.268Z,21.30
2023-03-31T21:11:40.710Z,15.10
2023-03-31T21:14:18.267Z,13.10
2023-03-31T21:16:53.908Z,13.00
2023-03-31T21:19:29.623Z,14.30
2023-03-31T21:22:04.830Z,12.60
2023-03-31T21:24:40.933Z,13.80
2023-03-31T21:27:18.565Z,16.00
2023-03-31T21:29:54.089Z,15.40
2023-03-31T21:32:29.790Z,14.10
2023-03-31T21:35:15.031Z,18.70
2023-03-31T21:37:50.667Z,33.60
2023-03-31T21:40:24.770Z,30.50
2023-03-31T21:43:04.132Z,29.60
2023-03-31T21:45:43.265Z,27.40
2023-03-31T21:48:26.092Z,22.90
2023-03-31T21:51:03.765Z,17.60
2023-03-31T21:53:40.333Z,18.10
2023-03-31T21:56:15.538Z,15.90
2023-03-31T21:58:54.658Z,19.50
2023-03-31T22:01:30.848Z,15.80
2023-03-31T22:04:06.800Z,13.00
2023-03-31T22:06:43.175Z,13.80
2023-03-31T22:09:18.473Z,14.00
2023-03-31T22:11:54.379Z,12.70
2023-03-31T22:14:29.754Z,12.80
2023-03-31T22:17:04.335Z,13.70
2023-03-31T22:19:39.829Z,13.80
2023-03-31T22:22:14.690Z,15.80
2023-03-31T22:24:48.585Z,15.90
2023-03-31T22:27:22.865Z,15.10
2023-03-31T22:29:57.358Z,15.80
2023-03-31T22:32:34.104Z,17.70
2023-03-31T22:35:13.256Z,15.20
2023-03-31T22:37:48.300Z,15.50
2023-03-31T22:40:23.307Z,16.00
2023-03-31T22:42:58.738Z,15.40
2023-03-31T22:45:33.518Z,17.10
2023-03-31T22:48:09.907Z,15.70
2023-03-31T22:50:46.528Z,16.10
2023-03-31T22:53:30.230Z,17.90
2023-03-31T22:56:10.768Z,16.20
2023-03-31T22:58:46.306Z,16.00
2023-03-31T23:01:23.741Z,17.10
2023-03-31T23:04:01.128Z,17.10
2023-03-31T23:06:36.709Z,16.30
2023-03-31T23:09:11.745Z,16.20
2023-03-31T23:11:48.234Z,16.10
2023-03-31T23:14:23.577Z,16.50
2023-03-31T23:16:58.293Z,17.70
2023-03-31T23:19:32.537Z,16.50
2023-03-31T23:22:07.882Z,16.50
2023-03-31T23:24:44.710Z,17.30
2023-03-31T23:27:21.147Z,17.60
2023-03-31T23:29:59.618Z,19.10
2023-03-31T23:32:34.826Z,18.70
2023-03-31T23:35:13.429Z,17.10
2023-03-31T23:37:48.491Z,17.70
2023-03-31T23:40:24.489Z,16.40
2023-03-31T23:43:00.897Z,17.70
2023-03-31T23:45:35.572Z,19.30
2023-03-31T23:48:11.445Z,18.80
2023-03-31T23:50:47.716Z,18.70
2023-03-31T23:53:23.906Z,18.40
2023-03-31T23:56:01.238Z,20.20
2023-03-31T23:58:37.300Z,20.80
